createdAt,value
2018-09-12T00:00:02.743Z,98518.96
2018-09-12T00:02:31.856Z,98517.13
2018-09-12T00:05:00.823Z,98517.23
2018-09-12T00:07:30.139Z,98517.80
2018-09-12T00:09:59.226Z,98515.24
2018-09-12T00:12:28.447Z,98518.96
2018-09-12T00:14:57.681Z,98518.20
2018-09-12T00:17:26.991Z,98512.54
2018-09-12T00:19:56.233Z,98510.45
2018-09-12T00:22:25.395Z,98503.88
2018-09-12T00:24:54.471Z,98507.98
2018-09-12T00:27:23.772Z,98509.80
2018-09-12T00:29:52.979Z,98511.12
2018-09-12T00:32:22.182Z,98513.80
2018-09-12T00:34:51.512Z,98511.34
2018-09-12T00:37:20.651Z,98515.64
2018-09-12T00:39:49.945Z,98507.45
2018-09-12T00:42:19.412Z,98516.61
2018-09-12T00:44:48.763Z,98514.44
2018-09-12T00:47:17.781Z,98512.34
2018-09-12T00:49:46.892Z,98510.46
2018-09-12T00:52:16.137Z,98508.63
2018-09-12T00:54:45.390Z,98506.61
2018-09-12T00:57:14.732Z,98500.52
2018-09-12T00:59:43.777Z,98501.80
2018-09-12T01:02:13.134Z,98501.04
2018-09-12T01:04:42.385Z,98498.19
2018-09-12T01:07:11.672Z,98502.97
2018-09-12T01:09:40.847Z,98500.58
2018-09-12T01:12:10.142Z,98504.97
2018-09-12T01:14:39.438Z,98497.38
2018-09-12T01:17:08.600Z,98504.73
2018-09-12T01:19:37.703Z,98507.41
2018-09-12T01:22:07.005Z,98508.84
2018-09-12T01:24:36.210Z,98509.78
2018-09-12T01:27:05.592Z,98517.02
2018-09-12T01:29:34.708Z,98511.78
2018-09-12T01:32:04.102Z,98510.18
2018-09-12T01:34:33.452Z,98507.32
2018-09-12T01:37:02.641Z,98510.56
2018-09-12T01:39:31.903Z,98516.09
2018-09-12T01:42:00.709Z,98517.06
2018-09-12T01:44:30.039Z,98514.00
2018-09-12T01:46:59.167Z,98521.91
2018-09-12T01:49:28.186Z,98518.77
2018-09-12T01:51:57.256Z,98522.97
2018-09-12T01:54:26.072Z,98523.17
2018-09-12T01:56:55.395Z,98530.00
2018-09-12T01:59:24.429Z,98527.91
2018-09-12T02:01:53.683Z,98522.98
2018-09-12T02:04:22.859Z,98522.78
2018-09-12T02:06:52.005Z,98529.08
2018-09-12T02:09:21.116Z,98524.11
2018-09-12T02:11:50.359Z,98530.98
2018-09-12T02:14:19.449Z,98527.84
2018-09-12T02:16:48.551Z,98531.64
2018-09-12T02:19:17.767Z,98530.78
2018-09-12T02:21:46.660Z,98527.84
2018-09-12T02:24:15.931Z,98530.41
2018-09-12T02:26:45.148Z,98539.45
2018-09-12T02:29:14.148Z,98542.21
2018-09-12T02:31:43.547Z,98536.11
2018-09-12T02:34:12.839Z,98533.48
2018-09-12T02:36:42.150Z,98537.34
2018-09-12T02:39:11.083Z,98539.13
2018-09-12T02:41:40.075Z,98538.70
2018-09-12T02:44:09.468Z,98543.73
2018-09-12T02:46:38.946Z,98544.80
2018-09-12T02:49:08.281Z,98544.80
2018-09-12T02:51:37.720Z,98539.33
2018-09-12T02:54:07.091Z,98546.35
2018-09-12T02:56:36.477Z,98542.36
2018-09-12T02:59:05.387Z,98541.80
2018-09-12T03:01:34.430Z,98535.23
2018-09-12T03:04:19.400Z,98544.45
2018-09-12T03:06:48.592Z,98539.03
2018-09-12T03:09:17.928Z,98546.34
2018-09-12T03:11:46.936Z,98546.24
2018-09-12T03:14:16.309Z,98550.73
2018-09-12T03:16:45.567Z,98543.50
2018-09-12T03:19:14.876Z,98541.02
2018-09-12T03:21:44.017Z,98549.73
2018-09-12T03:24:13.410Z,98551.23
2018-09-12T03:26:42.360Z,98555.63
2018-09-12T03:29:11.759Z,98558.10
2018-09-12T03:31:40.781Z,98550.07
2018-09-12T03:34:09.899Z,98549.66
2018-09-12T03:36:39.140Z,98544.89
2018-09-12T03:39:10.273Z,98553.52
2018-09-12T03:41:40.017Z,98550.59
2018-09-12T03:44:09.751Z,98554.05
2018-09-12T03:46:39.252Z,98560.46
2018-09-12T03:49:08.305Z,98556.01
2018-09-12T03:51:37.640Z,98555.42
2018-09-12T03:54:06.949Z,98555.83
2018-09-12T03:56:36.107Z,98548.66
2018-09-12T03:59:05.438Z,98552.56
2018-09-12T04:01:34.700Z,98552.96
2018-09-12T04:04:03.938Z,98547.95
2018-09-12T04:06:33.447Z,98549.19
2018-09-12T04:09:02.916Z,98554.33
2018-09-12T04:11:32.235Z,98553.16
2018-09-12T04:14:01.238Z,98560.48
2018-09-12T04:16:30.119Z,98569.98
2018-09-12T04:18:59.382Z,98561.63
2018-09-12T04:21:28.483Z,98565.59
2018-09-12T04:23:57.767Z,98566.27
2018-09-12T04:26:27.075Z,98565.69
2018-09-12T04:28:56.370Z,98568.81
2018-09-12T04:31:25.713Z,98573.73
2018-09-12T04:33:54.598Z,98572.55
2018-09-12T04:36:23.858Z,98583.27
2018-09-12T04:38:53.033Z,98591.47
2018-09-12T04:41:22.216Z,98583.85
2018-09-12T04:43:51.620Z,98591.47
2018-09-12T04:46:20.680Z,98584.63
2018-09-12T04:48:49.908Z,98584.07
2018-09-12T04:51:19.123Z,98579.30
2018-09-12T04:53:47.989Z,98577.41
2018-09-12T04:56:17.270Z,98579.42
2018-09-12T04:58:46.628Z,98584.97
2018-09-12T05:01:15.801Z,98590.57
2018-09-12T05:03:45.092Z,98583.94
2018-09-12T05:06:14.193Z,98580.72
2018-09-12T05:08:43.552Z,98578.92
2018-09-12T05:11:12.769Z,98577.89
2018-09-12T05:13:42.050Z,98581.88
2018-09-12T05:16:11.465Z,98587.52
2018-09-12T05:18:40.811Z,98590.86
2018-09-12T05:21:10.130Z,98587.34
2018-09-12T05:23:39.055Z,98585.73
2018-09-12T05:26:08.402Z,98590.30
2018-09-12T05:28:37.584Z,98586.14
2018-09-12T05:31:06.835Z,98586.82
2018-09-12T05:33:36.157Z,98590.52
2018-09-12T05:36:05.492Z,98595.34
2018-09-12T05:38:34.807Z,98594.19
2018-09-12T05:41:04.194Z,98589.84
2018-09-12T05:43:33.555Z,98594.00
2018-09-12T05:46:03.048Z,98590.20
2018-09-12T05:48:31.847Z,98586.56
2018-09-12T05:51:00.868Z,98587.13
2018-09-12T05:53:30.120Z,98589.07
2018-09-12T05:55:59.371Z,98596.88
2018-09-12T05:58:28.728Z,98592.00
2018-09-12T06:00:58.084Z,98595.62
2018-09-12T06:03:27.419Z,98591.13
2018-09-12T06:05:56.563Z,98598.76
2018-09-12T06:08:25.759Z,98595.11
2018-09-12T06:10:54.818Z,98601.50
2018-09-12T06:13:24.174Z,98602.81
2018-09-12T06:15:53.216Z,98600.59
2018-09-12T06:18:22.430Z,98600.66
2018-09-12T06:20:51.525Z,98596.94
2018-09-12T06:23:20.607Z,98605.50
2018-09-12T06:25:49.804Z,98604.17
2018-09-12T06:28:19.156Z,98603.06
2018-09-12T06:30:48.740Z,98602.86
2018-09-12T06:33:18.288Z,98607.80
2018-09-12T06:35:47.792Z,98605.55
2018-09-12T06:38:17.232Z,98603.53
2018-09-12T06:40:47.673Z,98604.88
2018-09-12T06:43:17.170Z,98608.13
2018-09-12T06:45:46.753Z,98605.61
2018-09-12T06:48:16.303Z,98609.25
2018-09-12T06:53:13.651Z,98600.78
2018-09-12T06:55:43.043Z,98611.64
2018-09-12T06:58:12.652Z,98603.20
2018-09-12T07:00:42.128Z,98608.94
2018-09-12T07:03:11.660Z,98609.41
2018-09-12T07:05:41.115Z,98608.50
2018-09-12T07:08:10.702Z,98605.80
2018-09-12T07:10:40.367Z,98597.30
2018-09-12T07:13:09.896Z,98601.85
2018-09-12T07:15:40.231Z,98598.93
2018-09-12T07:18:09.858Z,98595.28
2018-09-12T07:20:39.188Z,98593.42
2018-09-12T07:23:08.699Z,98599.59
2018-09-12T07:25:38.244Z,98594.17
2018-09-12T07:28:07.859Z,98590.16
2018-09-12T07:30:37.517Z,98599.18
2018-09-12T07:33:06.787Z,98600.03
2018-09-12T07:35:36.258Z,98592.81
2018-09-12T07:38:05.987Z,98594.12
2018-09-12T07:40:35.501Z,98591.28
2018-09-12T07:43:05.132Z,98580.41
2018-09-12T07:45:34.321Z,98587.00
2018-09-12T07:48:04.016Z,98581.88
2018-09-12T07:50:33.655Z,98585.50
2018-09-12T07:53:03.252Z,98586.52
2018-09-12T07:55:32.833Z,98584.96
2018-09-12T07:58:02.353Z,98578.99
2018-09-12T08:00:31.957Z,98578.02
2018-09-12T08:03:01.494Z,98573.27
2018-09-12T08:05:30.724Z,98567.44
2018-09-12T08:08:00.073Z,98570.05
2018-09-12T08:10:29.247Z,98569.22
2018-09-12T08:12:58.829Z,98563.31
2018-09-12T08:15:28.430Z,98563.35
2018-09-12T08:17:57.907Z,98560.19
2018-09-12T08:20:27.219Z,98556.16
2018-09-12T08:22:56.920Z,98560.14
2018-09-12T08:25:26.679Z,98565.20
2018-09-12T08:27:56.124Z,98567.57
2018-09-12T08:30:25.448Z,98567.90
2018-09-12T08:32:54.669Z,98566.55
2018-09-12T08:35:24.040Z,98568.13
2018-09-12T08:37:53.663Z,98572.25
2018-09-12T08:40:23.258Z,98576.72
2018-09-12T08:42:52.928Z,98578.30
2018-09-12T08:45:22.401Z,98579.70
2018-09-12T08:47:52.048Z,98582.00
2018-09-12T08:50:23.929Z,98579.16
2018-09-12T08:52:54.711Z,98573.86
2018-09-12T08:55:24.282Z,98566.14
2018-09-12T08:57:54.040Z,98561.77
2018-09-12T09:00:27.493Z,98558.93
2018-09-12T09:02:57.069Z,98555.25
2018-09-12T09:05:26.428Z,98552.83
2018-09-12T09:07:55.647Z,98553.17
2018-09-12T09:10:25.280Z,98543.37
2018-09-12T09:12:55.815Z,98549.91
2018-09-12T09:15:26.088Z,98547.64
2018-09-12T09:17:55.647Z,98548.84
2018-09-12T09:20:25.032Z,98544.24
2018-09-12T09:22:54.739Z,98541.80
2018-09-12T09:25:24.267Z,98537.66
2018-09-12T09:27:53.743Z,98539.88
2018-09-12T09:30:24.564Z,98534.14
2018-09-12T09:32:54.052Z,98529.70
2018-09-12T09:35:24.005Z,98530.75
2018-09-12T09:37:53.387Z,98523.05
2018-09-12T09:40:23.011Z,98514.95
2018-09-12T09:42:52.625Z,98512.96
2018-09-12T09:45:22.070Z,98525.09
2018-09-12T09:47:51.562Z,98518.36
2018-09-12T09:50:21.025Z,98525.14
2018-09-12T09:52:50.476Z,98518.32
2018-09-12T09:55:19.971Z,98504.46
2018-09-12T09:57:49.561Z,98508.84
2018-09-12T10:00:24.053Z,98510.89
2018-09-12T10:02:58.124Z,98501.75
2018-09-12T10:05:32.556Z,98500.71
2018-09-12T10:08:06.931Z,98499.13
2018-09-12T10:10:36.588Z,98499.66
2018-09-12T10:13:06.302Z,98503.48
2018-09-12T10:15:36.258Z,98495.33
2018-09-12T10:18:05.906Z,98507.32
2018-09-12T10:20:35.723Z,98502.99
2018-09-12T10:23:05.423Z,98506.23
2018-09-12T10:25:35.042Z,98501.61
2018-09-12T10:28:06.488Z,98498.19
2018-09-12T10:30:35.967Z,98506.28
2018-09-12T10:33:06.343Z,98495.20
2018-09-12T10:35:36.501Z,98492.88
2018-09-12T10:38:06.253Z,98500.27
2018-09-12T10:40:35.699Z,98493.66
2018-09-12T10:43:05.279Z,98486.52
2018-09-12T10:45:34.723Z,98492.13
2018-09-12T10:48:04.248Z,98494.32
2018-09-12T10:50:33.821Z,98481.84
2018-09-12T10:53:03.505Z,98487.74
2018-09-12T10:55:32.919Z,98480.68
2018-09-12T10:58:02.476Z,98481.50
2018-09-12T11:00:32.083Z,98475.22
2018-09-12T11:03:01.542Z,98476.02
2018-09-12T11:05:31.111Z,98471.01
2018-09-12T11:08:00.616Z,98475.47
2018-09-12T11:10:30.194Z,98462.82
2018-09-12T11:13:00.307Z,98449.47
2018-09-12T11:15:30.028Z,98450.33
2018-09-12T11:17:59.557Z,98448.72
2018-09-12T11:20:28.759Z,98450.09
2018-09-12T11:22:58.079Z,98449.20
2018-09-12T11:25:27.327Z,98442.91
2018-09-12T11:27:56.546Z,98437.86
2018-09-12T11:30:25.744Z,98432.19
2018-09-12T11:32:54.961Z,98430.80
2018-09-12T11:35:24.205Z,98429.34
2018-09-12T11:37:53.391Z,98435.05
2018-09-12T11:40:22.633Z,98429.34
2018-09-12T11:42:51.892Z,98425.66
2018-09-12T11:45:21.076Z,98427.98
2018-09-12T11:47:50.325Z,98425.66
2018-09-12T11:50:20.908Z,98422.25
2018-09-12T11:52:50.147Z,98416.58
2018-09-12T11:55:19.806Z,98419.42
2018-09-12T11:57:49.160Z,98409.95
2018-09-12T12:00:18.403Z,98404.36
2018-09-12T12:02:47.679Z,98408.74
2018-09-12T12:05:16.894Z,98414.77
2018-09-12T12:07:46.197Z,98409.60
2018-09-12T12:10:15.510Z,98409.75
2018-09-12T12:12:44.699Z,98407.37
2018-09-12T12:15:14.332Z,98395.83
2018-09-12T12:17:43.486Z,98401.92
2018-09-12T12:22:50.971Z,98406.25
2018-09-12T12:25:20.518Z,98411.99
2018-09-12T12:27:49.976Z,98419.05
2018-09-12T12:30:19.196Z,98408.42
2018-09-12T12:32:48.763Z,98407.25
2018-09-12T12:35:18.483Z,98407.56
2018-09-12T12:37:49.156Z,98403.29
2018-09-12T12:40:18.684Z,98411.20
2018-09-12T12:42:48.193Z,98415.64
2018-09-12T12:45:18.767Z,98414.78
2018-09-12T12:47:48.063Z,98417.46
2018-09-12T12:50:17.327Z,98408.25
2018-09-12T12:52:46.736Z,98404.20
2018-09-12T12:55:16.212Z,98410.87
2018-09-12T12:57:45.521Z,98408.23
2018-09-12T13:00:15.224Z,98416.22
2018-09-12T13:02:44.748Z,98411.51
2018-09-12T13:05:14.223Z,98415.27
2018-09-12T13:07:43.712Z,98417.60
2018-09-12T13:10:13.504Z,98417.02
2018-09-12T13:12:42.712Z,98417.02
2018-09-12T13:15:12.107Z,98422.50
2018-09-12T13:17:41.617Z,98418.63
2018-09-12T13:20:11.280Z,98425.29
2018-09-12T13:22:40.595Z,98414.65
2018-09-12T13:25:10.195Z,98416.67
2018-09-12T13:27:39.712Z,98426.62
2018-09-12T13:30:09.228Z,98427.51
2018-09-12T13:32:38.963Z,98424.69
2018-09-12T13:35:08.221Z,98423.95
2018-09-12T13:37:37.403Z,98428.09
2018-09-12T13:40:07.112Z,98432.22
2018-09-12T13:42:36.449Z,98432.11
2018-09-12T13:45:06.116Z,98433.33
2018-09-12T13:47:35.271Z,98438.20
2018-09-12T13:50:04.996Z,98429.76
2018-09-12T13:52:34.579Z,98427.44
2018-09-12T13:55:04.315Z,98431.92
2018-09-12T13:57:33.511Z,98426.09
2018-09-12T14:00:03.040Z,98421.66
2018-09-12T14:02:32.219Z,98419.97
2018-09-12T14:05:01.712Z,98421.19
2018-09-12T14:07:31.287Z,98426.58
2018-09-12T14:10:00.798Z,98415.05
2018-09-12T14:12:29.914Z,98413.59
2018-09-12T14:14:59.436Z,98408.98
2018-09-12T14:17:29.082Z,98411.43
2018-09-12T14:19:58.371Z,98405.48
2018-09-12T14:22:27.684Z,98408.70
2018-09-12T14:24:57.044Z,98415.98
2018-09-12T14:27:26.231Z,98412.30
2018-09-12T14:29:55.644Z,98409.62
2018-09-12T14:32:25.135Z,98413.00
2018-09-12T14:34:54.597Z,98405.69
2018-09-12T14:37:24.177Z,98406.31
2018-09-12T14:39:53.461Z,98407.30
2018-09-12T14:42:22.783Z,98399.66
2018-09-12T14:44:51.870Z,98403.31
2018-09-12T14:47:21.465Z,98410.36
2018-09-12T14:49:50.347Z,98402.45
2018-09-12T14:52:19.668Z,98400.57
2018-09-12T14:54:48.986Z,98399.03
2018-09-12T14:57:18.327Z,98402.81
2018-09-12T14:59:47.567Z,98397.34
2018-09-12T15:02:16.780Z,98395.52
2018-09-12T15:04:46.109Z,98397.25
2018-09-12T15:07:15.144Z,98389.84
2018-09-12T15:09:44.359Z,98389.96
2018-09-12T15:12:13.624Z,98390.85
2018-09-12T15:14:42.859Z,98384.99
2018-09-12T15:17:12.019Z,98381.45
2018-09-12T15:19:42.303Z,98375.13
2018-09-12T15:22:11.578Z,98374.47
2018-09-12T15:24:40.652Z,98381.09
2018-09-12T15:27:09.987Z,98385.70
2018-09-12T15:29:39.360Z,98383.58
2018-09-12T15:32:08.663Z,98384.48
2018-09-12T15:34:38.260Z,98382.98
2018-09-12T15:37:07.633Z,98388.73
2018-09-12T15:39:36.992Z,98390.94
2018-09-12T15:42:06.339Z,98393.14
2018-09-12T15:44:35.718Z,98394.98
2018-09-12T15:47:05.351Z,98396.59
2018-09-12T15:49:34.896Z,98394.78
2018-09-12T15:52:04.460Z,98394.39
2018-09-12T15:54:33.505Z,98390.11
2018-09-12T15:57:02.956Z,98388.26
2018-09-12T15:59:32.452Z,98385.59
2018-09-12T16:02:01.656Z,98388.38
2018-09-12T16:04:31.054Z,98384.09
2018-09-12T16:07:00.152Z,98383.14
2018-09-12T16:09:29.147Z,98384.21
2018-09-12T16:11:58.252Z,98379.72
2018-09-12T16:14:27.404Z,98386.49
2018-09-12T16:16:56.949Z,98382.48
2018-09-12T16:19:26.156Z,98381.89
2018-09-12T16:21:55.412Z,98380.52
2018-09-12T16:24:24.960Z,98387.28
2018-09-12T16:26:54.429Z,98376.90
2018-09-12T16:29:23.758Z,98381.90
2018-09-12T16:31:53.222Z,98383.08
2018-09-12T16:34:22.367Z,98381.97
2018-09-12T16:36:51.425Z,98381.61
2018-09-12T16:39:20.914Z,98377.99
2018-09-12T16:41:50.258Z,98378.50
2018-09-12T16:44:19.600Z,98381.88
2018-09-12T16:46:49.133Z,98383.41
2018-09-12T16:49:18.621Z,98378.38
2018-09-12T16:51:47.958Z,98379.92
2018-09-12T16:54:17.080Z,98378.81
2018-09-12T16:56:46.611Z,98378.92
2018-09-12T16:59:15.835Z,98378.88
2018-09-12T17:01:45.168Z,98374.04
2018-09-12T17:04:14.717Z,98379.16
2018-09-12T17:06:44.103Z,98374.22
2018-09-12T17:09:13.594Z,98384.27
2018-09-12T17:11:43.088Z,98380.02
2018-09-12T17:14:12.415Z,98379.17
2018-09-12T17:16:41.444Z,98381.42
2018-09-12T17:19:10.613Z,98383.69
2018-09-12T17:21:40.828Z,98385.73
2018-09-12T17:24:10.206Z,98390.09
2018-09-12T17:26:39.650Z,98390.62
2018-09-12T17:29:09.060Z,98392.70
2018-09-12T17:31:38.578Z,98399.25
2018-09-12T17:34:08.257Z,98397.80
2018-09-12T17:36:37.899Z,98402.52
2018-09-12T17:39:09.324Z,98400.91
2018-09-12T17:41:38.588Z,98402.00
2018-09-12T17:44:08.436Z,98400.89
2018-09-12T17:46:37.794Z,98406.43
2018-09-12T17:49:07.067Z,98402.48
2018-09-12T17:51:36.327Z,98410.67
2018-09-12T17:54:05.882Z,98413.11
2018-09-12T17:56:35.157Z,98413.22
2018-09-12T17:59:04.935Z,98409.69
2018-09-12T18:01:34.505Z,98401.25
2018-09-12T18:04:05.565Z,98412.28
2018-09-12T18:06:35.018Z,98408.11
2018-09-12T18:09:05.015Z,98412.36
2018-09-12T18:11:34.215Z,98412.91
2018-09-12T18:14:04.815Z,98417.76
2018-09-12T18:16:34.742Z,98408.68
2018-09-12T18:19:07.075Z,98413.50
2018-09-12T18:21:37.094Z,98420.48
2018-09-12T18:24:07.908Z,98416.63
2018-09-12T18:26:38.326Z,98424.90
2018-09-12T18:29:08.914Z,98426.17
2018-09-12T18:31:39.180Z,98426.70
2018-09-12T18:34:08.988Z,98427.68
2018-09-12T18:36:40.040Z,98428.52
2018-09-12T18:39:10.983Z,98430.77
2018-09-12T18:41:41.169Z,98430.48
2018-09-12T18:44:11.180Z,98434.89
2018-09-12T18:46:40.624Z,98438.73
2018-09-12T18:49:10.511Z,98446.33
2018-09-12T18:51:40.187Z,98446.91
2018-09-12T18:54:09.713Z,98445.52
2018-09-12T18:56:40.786Z,98451.75
2018-09-12T18:59:10.441Z,98456.47
2018-09-12T19:01:39.863Z,98453.88
2018-09-12T19:04:10.179Z,98455.80
2018-09-12T19:06:39.808Z,98464.81
2018-09-12T19:09:12.409Z,98456.95
2018-09-12T19:11:42.794Z,98456.00
2018-09-12T19:14:12.201Z,98455.78
2018-09-12T19:16:42.552Z,98460.00
2018-09-12T19:19:11.891Z,98469.30
2018-09-12T19:21:41.484Z,98472.05
2018-09-12T19:24:11.461Z,98463.72
2018-09-12T19:26:41.328Z,98466.83
2018-09-12T19:29:11.647Z,98464.06
2018-09-12T19:31:41.808Z,98465.91
2018-09-12T19:34:11.532Z,98462.20
2018-09-12T19:36:40.835Z,98466.06
2018-09-12T19:39:11.042Z,98462.50
2018-09-12T19:41:40.792Z,98457.55
2018-09-12T19:44:10.261Z,98457.05
2018-09-12T19:46:39.376Z,98461.59
2018-09-12T19:49:08.520Z,98470.22
2018-09-12T19:51:37.937Z,98460.33
2018-09-12T19:54:08.031Z,98458.05
2018-09-12T19:56:37.611Z,98448.42
2018-09-12T19:59:07.450Z,98441.25
2018-09-12T20:01:37.454Z,98447.45
2018-09-12T20:04:07.264Z,98444.71
2018-09-12T20:06:36.712Z,98440.63
2018-09-12T20:09:11.246Z,98443.77
2018-09-12T20:11:40.905Z,98432.52
2018-09-12T20:14:11.467Z,98437.60
2018-09-12T20:16:41.103Z,98437.78
2018-09-12T20:19:11.224Z,98433.66
2018-09-12T20:21:41.329Z,98434.03
2018-09-12T20:24:12.179Z,98433.88
2018-09-12T20:26:42.433Z,98437.85
2018-09-12T20:29:12.612Z,98442.87
2018-09-12T20:31:42.307Z,98433.42
2018-09-12T20:34:11.744Z,98427.43
2018-09-12T20:36:41.702Z,98429.78
2018-09-12T20:39:12.052Z,98429.34
2018-09-12T20:41:41.301Z,98436.13
2018-09-12T20:44:10.681Z,98425.52
2018-09-12T20:46:39.999Z,98430.97
2018-09-12T20:49:09.557Z,98436.38
2018-09-12T20:51:43.196Z,98443.12
2018-09-12T20:54:13.443Z,98437.71
2018-09-12T20:56:44.459Z,98434.36
2018-09-12T20:59:14.896Z,98433.59
2018-09-12T21:01:44.024Z,98428.01
2018-09-12T21:04:13.488Z,98427.90
2018-09-12T21:06:44.088Z,98425.70
2018-09-12T21:09:14.574Z,98419.95
2018-09-12T21:11:44.119Z,98426.05
2018-09-12T21:14:13.352Z,98424.32
2018-09-12T21:16:42.896Z,98422.23
2018-09-12T21:19:12.139Z,98419.50
2018-09-12T21:21:41.389Z,98414.91
2018-09-12T21:24:10.914Z,98416.43
2018-09-12T21:26:40.153Z,98418.70
2018-09-12T21:29:09.510Z,98413.91
2018-09-12T21:31:39.016Z,98415.56
2018-09-12T21:34:08.572Z,98414.12
2018-09-12T21:36:37.978Z,98412.68
2018-09-12T21:39:09.834Z,98416.33
2018-09-12T21:41:39.324Z,98417.59
2018-09-12T21:44:08.613Z,98413.92
2018-09-12T21:46:37.886Z,98411.17
2018-09-12T21:49:06.931Z,98411.88
2018-09-12T21:51:36.102Z,98410.41
2018-09-12T21:54:05.708Z,98404.19
2018-09-12T21:56:34.682Z,98404.42
2018-09-12T21:59:04.307Z,98399.87
2018-09-12T22:01:33.658Z,98400.56
2018-09-12T22:04:02.870Z,98403.25
2018-09-12T22:06:32.011Z,98398.69
2018-09-12T22:09:01.334Z,98398.56
2018-09-12T22:11:30.538Z,98396.00
2018-09-12T22:13:59.799Z,98395.06
2018-09-12T22:16:29.251Z,98392.31
2018-09-12T22:18:58.597Z,98387.09
2018-09-12T22:21:27.885Z,98395.82
2018-09-12T22:23:56.887Z,98394.98
2018-09-12T22:26:26.203Z,98388.80
2018-09-12T22:28:55.297Z,98383.30
2018-09-12T22:31:24.476Z,98385.29
2018-09-12T22:33:53.323Z,98388.31
2018-09-12T22:36:22.520Z,98383.58
2018-09-12T22:38:51.673Z,98379.47
2018-09-12T22:41:20.899Z,98384.62
2018-09-12T22:43:50.085Z,98381.38
2018-09-12T22:46:19.164Z,98380.64
2018-09-12T22:48:48.424Z,98374.83
2018-09-12T22:51:17.469Z,98371.11
2018-09-12T22:53:46.718Z,98374.33
2018-09-12T22:56:16.056Z,98372.64
2018-09-12T22:58:45.247Z,98367.22
2018-09-12T23:01:14.536Z,98369.98
2018-09-12T23:03:44.019Z,98369.78
2018-09-12T23:06:13.459Z,98366.06
2018-09-12T23:08:42.745Z,98369.39
2018-09-12T23:11:12.074Z,98360.06
2018-09-12T23:13:41.307Z,98361.38
2018-09-12T23:16:10.598Z,98351.81
2018-09-12T23:18:39.787Z,98355.81
2018-09-12T23:21:09.100Z,98356.94
2018-09-12T23:23:38.295Z,98355.81
2018-09-12T23:26:07.479Z,98354.37
2018-09-12T23:28:36.383Z,98358.58
2018-09-12T23:31:05.467Z,98356.84
2018-09-12T23:33:34.715Z,98358.38
2018-09-12T23:36:03.806Z,98358.08
2018-09-12T23:38:33.125Z,98352.58
2018-09-12T23:41:02.344Z,98358.94
2018-09-12T23:43:31.591Z,98358.73
2018-09-12T23:46:00.504Z,98359.70
2018-09-12T23:48:29.583Z,98358.52
2018-09-12T23:50:58.834Z,98354.73
2018-09-12T23:53:27.876Z,98351.41
2018-09-12T23:55:57.127Z,98355.30
2018-09-12T23:58:26.304Z,98347.70
